Home > Products > Valid Products > TAF

000
FTUS44 KEWX 060533
TAFAUS
TAF
KAUS 060533Z 0606/0712 19005KT P6SM OVC090
     FM060800 27010KT P6SM OVC050
      TEMPO 0608/0610 -SHRA
     FM061400 33015G25KT P6SM FEW050
     FM070100 36005KT P6SM SKC=



000
FTUS44 KEWX 060533
TAFSAT
TAF
KSAT 060533Z 0606/0712 15010KT P6SM OVC070
     FM060900 30005KT P6SM OVC050
      TEMPO 0609/0611 -SHRA
     FM061500 33015G25KT P6SM FEW050
     FM070100 35005KT P6SM SKC=



000
FTUS44 KEWX 060533
TAFAUS
TAF
KAUS 060533Z 0606/0712 19005KT P6SM OVC090
     FM060800 27010KT P6SM OVC050
      TEMPO 0608/0610 -SHRA
     FM061400 33015G25KT P6SM FEW050
     FM070100 36005KT P6SM SKC=



000
FTUS44 KEWX 060533
TAFDRT
TAF
KDRT 060533Z 0606/0706 31005KT P6SM FEW250
     FM061700 32012G22KT P6SM SKC
     FM070100 11005KT P6SM SKC=



000
FTUS44 KEWX 060533
TAFDRT
TAF
KDRT 060533Z 0606/0706 31005KT P6SM FEW250
     FM061700 32012G22KT P6SM SKC
     FM070100 11005KT P6SM SKC=



000
FTUS44 KEWX 060533
TAFSAT
TAF
KSAT 060533Z 0606/0712 15010KT P6SM OVC070
     FM060900 30005KT P6SM OVC050
      TEMPO 0609/0611 -SHRA
     FM061500 33015G25KT P6SM FEW050
     FM070100 35005KT P6SM SKC=



000
FTUS44 KEWX 052332
TAFDRT
TAF
KDRT 052332Z 0600/0624 14010KT P6SM FEW250
     FM060400 34005KT P6SM FEW250
     FM061500 31012G22KT P6SM SKC=



000
FTUS44 KEWX 052332
TAFDRT
TAF
KDRT 052332Z 0600/0624 14010KT P6SM FEW250
     FM060400 34005KT P6SM FEW250
     FM061500 31012G22KT P6SM SKC=



000
FTUS44 KEWX 052332
TAFAUS
TAF
KAUS 052332Z 0600/0706 16010KT P6SM SCT070
     FM060300 16005KT P6SM OVC070
     FM060900 25010KT P6SM OVC050 PROB30 0609/0612 5SM -RA
     FM061500 33015G25KT P6SM FEW050
     FM070100 36010KT P6SM SKC=



000
FTUS44 KEWX 052332
TAFSAT
TAF
KSAT 052332Z 0600/0706 16010KT P6SM OVC070
     FM060900 30005KT P6SM OVC050 PROB30 0609/0612 5SM -RA
     FM061500 33015G25KT P6SM FEW050
     FM070100 35005KT P6SM SKC=



000
FTUS44 KEWX 052332
TAFSAT
TAF
KSAT 052332Z 0600/0706 16010KT P6SM OVC070
     FM060900 30005KT P6SM OVC050 PROB30 0609/0612 5SM -RA
     FM061500 33015G25KT P6SM FEW050
     FM070100 35005KT P6SM SKC=



000
FTUS44 KEWX 052332
TAFAUS
TAF
KAUS 052332Z 0600/0706 16010KT P6SM SCT070
     FM060300 16005KT P6SM OVC070
     FM060900 25010KT P6SM OVC050 PROB30 0609/0612 5SM -RA
     FM061500 33015G25KT P6SM FEW050
     FM070100 36010KT P6SM SKC=



000
FTUS44 KEWX 052152 AAA
TAFDRT
TAF AMD
KDRT 052152Z 0522/0618 14012G22KT P6SM FEW250
     FM060100 34006KT P6SM FEW250
     FM060600 VRB06KT P6SM SCT100
     FM061500 31011KT P6SM SKC=



000
FTUS44 KEWX 051722
TAFAUS
TAF
KAUS 051722Z 0518/0624 16010KT P6SM FEW200
     FM060300 16005KT P6SM OVC100
     FM060900 25010KT P6SM OVC050 PROB30 0609/0612 5SM -RA
     FM061500 33012G25KT P6SM FEW050=



000
FTUS44 KEWX 051722
TAFDRT
TAF
KDRT 051722Z 0518/0618 13012KT P6SM FEW250
     FM060100 04006KT P6SM FEW250
     FM060600 VRB06KT P6SM SCT100
     FM061500 31011KT P6SM SKC=



000
FTUS44 KEWX 051722
TAFSAT
TAF
KSAT 051722Z 0518/0624 16009KT P6SM FEW250
     FM060300 16005KT P6SM OVC100
     FM060900 24008KT P6SM OVC050 PROB30 0609/0612 5SM -RA
     FM061500 33012G25KT P6SM FEW050=



000
FTUS44 KEWX 051722
TAFAUS
TAF
KAUS 051722Z 0518/0624 16010KT P6SM FEW200
     FM060300 16005KT P6SM OVC100
     FM060900 25010KT P6SM OVC050 PROB30 0609/0612 5SM -RA
     FM061500 33012G25KT P6SM FEW050=



000
FTUS44 KEWX 051722
TAFSAT
TAF
KSAT 051722Z 0518/0624 16009KT P6SM FEW250
     FM060300 16005KT P6SM OVC100
     FM060900 24008KT P6SM OVC050 PROB30 0609/0612 5SM -RA
     FM061500 33012G25KT P6SM FEW050=



000
FTUS44 KEWX 051722
TAFDRT
TAF
KDRT 051722Z 0518/0618 13012KT P6SM FEW250
     FM060100 04006KT P6SM FEW250
     FM060600 VRB06KT P6SM SCT100
     FM061500 31011KT P6SM SKC=



000
FTUS44 KEWX 051133
TAFDRT
TAF
KDRT 051133Z 0512/0612 11005KT P6SM SKC
     FM051600 14015KT P6SM FEW250
     FM060100 10005KT P6SM FEW250
     FM060600 32006KT P6SM SCT100=



000
FTUS44 KEWX 051133
TAFAUS
TAF
KAUS 051133Z 0512/0618 VRB04KT P6SM SKC
     FM051600 15012KT P6SM FEW250
     FM060300 16005KT P6SM OVC100
     FM060900 25010KT P6SM OVC050 PROB30 0609/0612 5SM -RA
     FM061500 32012KT P6SM FEW050=



000
FTUS44 KEWX 051133
TAFSAT
TAF
KSAT 051133Z 0512/0618 VRB04KT P6SM SKC
     FM051600 16010KT P6SM FEW250
     FM060300 16005KT P6SM OVC100
     FM060900 24008KT P6SM OVC050 PROB30 0609/0612 5SM -RA
     FM061500 32012KT P6SM FEW050=



000
FTUS44 KEWX 051133
TAFSAT
TAF
KSAT 051133Z 0512/0618 VRB04KT P6SM SKC
     FM051600 16010KT P6SM FEW250
     FM060300 16005KT P6SM OVC100
     FM060900 24008KT P6SM OVC050 PROB30 0609/0612 5SM -RA
     FM061500 32012KT P6SM FEW050=



000
FTUS44 KEWX 051133
TAFDRT
TAF
KDRT 051133Z 0512/0612 11005KT P6SM SKC
     FM051600 14015KT P6SM FEW250
     FM060100 10005KT P6SM FEW250
     FM060600 32006KT P6SM SCT100=



000
FTUS44 KEWX 051133
TAFAUS
TAF
KAUS 051133Z 0512/0618 VRB04KT P6SM SKC
     FM051600 15012KT P6SM FEW250
     FM060300 16005KT P6SM OVC100
     FM060900 25010KT P6SM OVC050 PROB30 0609/0612 5SM -RA
     FM061500 32012KT P6SM FEW050=



000
FTUS44 KEWX 050527
TAFAUS
TAF
KAUS 050527Z 0506/0612 09004KT P6SM SKC
     FM051600 15012KT P6SM SCT250
     FM060300 16005KT P6SM OVC100
     FM060900 27010KT P6SM OVC050 PROB30 0609/0612 5SM -RA=



000
FTUS44 KEWX 050527
TAFSAT
TAF
KSAT 050527Z 0506/0612 12005KT P6SM SKC
     FM051600 16012KT P6SM SCT250
     FM060300 16005KT P6SM OVC100
     FM060900 29010KT P6SM OVC050 PROB30 0609/0612 5SM -RA=



000
FTUS44 KEWX 050527
TAFDRT
TAF
KDRT 050527Z 0506/0606 11005KT P6SM SKC
     FM051500 14015KT P6SM FEW250
     FM060300 32005KT P6SM FEW250=



000
FTUS44 KEWX 042329
TAFSAT
TAF
KSAT 042329Z 0500/0606 12005KT P6SM SKC
     FM051600 16012KT P6SM SCT250=



000
FTUS44 KEWX 042329
TAFSAT
TAF
KSAT 042329Z 0500/0606 12005KT P6SM SKC
     FM051600 16012KT P6SM SCT250=



000
FTUS44 KEWX 042329
TAFAUS
TAF
KAUS 042329Z 0500/0606 VRB03KT P6SM SKC
     FM051600 15012KT P6SM SCT250=



000
FTUS44 KEWX 042329
TAFDRT
TAF
KDRT 042329Z 0500/0524 15005KT P6SM SKC
     FM050200 11005KT P6SM SKC
     FM051500 13012KT P6SM FEW250=



000
FTUS44 KEWX 042329
TAFAUS
TAF
KAUS 042329Z 0500/0606 VRB03KT P6SM SKC
     FM051600 15012KT P6SM SCT250=



000
FTUS44 KEWX 042329
TAFDRT
TAF
KDRT 042329Z 0500/0524 15005KT P6SM SKC
     FM050200 11005KT P6SM SKC
     FM051500 13012KT P6SM FEW250=



000
FTUS44 KEWX 041739
TAFAUS
TAF
KAUS 041739Z 0418/0524 03007KT P6SM SKC
     FM050100 VRB03KT P6SM SKC
     FM051600 15012KT P6SM SCT250=



000
FTUS44 KEWX 041739
TAFSAT
TAF
KSAT 041739Z 0418/0524 06007KT P6SM SKC
     FM050000 10005KT P6SM SKC
     FM051600 16012KT P6SM SCT250=



000
FTUS44 KEWX 041739
TAFDRT
TAF
KDRT 041739Z 0418/0518 13008KT P6SM SKC
     FM050000 10006KT P6SM SKC
     FM051500 13012KT P6SM FEW250=



000
FTUS44 KEWX 041207 RRA
TAFDRT
TAF
KDRT 041207Z 0412/0512 VRB03KT P6SM SKC
     FM041700 14007KT P6SM SKC=



000
FTUS44 KEWX 041207 RRA
TAFSAT
TAF
KSAT 041207Z 0412/0518 32004KT P6SM SKC
     FM041600 04007KT P6SM SKC
     FM042300 10005KT P6SM SKC=



000
FTUS44 KEWX 041207 RRA
TAFAUS
TAF
KAUS 041207Z 0412/0518 32003KT P6SM SKC
     FM041600 03008KT P6SM SKC
     FM050100 VRB03KT P6SM SKC=



000
FTUS44 KEWX 041207 RRA
TAFAUS
TAF
KAUS 041207Z 0412/0518 32003KT P6SM SKC
     FM041600 03008KT P6SM SKC
     FM050100 VRB03KT P6SM SKC=



000
FTUS44 KEWX 041207 RRA
TAFDRT
TAF
KDRT 041207Z 0412/0512 VRB03KT P6SM SKC
     FM041700 14007KT P6SM SKC=



000
FTUS44 KEWX 041207 RRA
TAFSAT
TAF
KSAT 041207Z 0412/0518 32004KT P6SM SKC
     FM041600 04007KT P6SM SKC
     FM042300 10005KT P6SM SKC=



000
FTUS44 KEWX 040520
TAFDRT
TAF
KDRT 040520Z 0406/0506 02005KT P6SM SKC
     FM041700 13008KT P6SM SKC=



000
FTUS44 KEWX 040520
TAFSAT
TAF
KSAT 040520Z 0406/0512 01007KT P6SM SKC
     FM041800 05007KT P6SM SKC
     FM050100 10005KT P6SM SKC=



000
FTUS44 KEWX 040520
TAFAUS
TAF
KAUS 040520Z 0406/0512 01007KT P6SM SKC
     FM041800 03008KT P6SM SKC
     FM050100 09005KT P6SM SKC=



000
FTUS44 KEWX 040002 CCA
TAFDRT
TAF COR
KDRT 040002Z 0400/0424 33008KT P6SM SKC
     FM040500 02004KT P6SM SKC
     FM041600 14008KT P6SM SKC=



000
FTUS44 KEWX 040002 CCA
TAFDRT
TAF COR
KDRT 040002Z 0400/0424 33008KT P6SM SKC
     FM040500 02004KT P6SM SKC
     FM041600 14008KT P6SM SKC=



000
FTUS44 KEWX 032327
TAFDRT
TAF
KDRT 032327Z 0400/0424 32012KT P6SM SKC
     FM040500 02004KT P6SM SKC
     FM041600 14008KT P6SM SKC=



000
FTUS44 KEWX 032327
TAFAUS
TAF
KAUS 032327Z 0400/0506 35012KT P6SM FEW250
     FM040100 36007KT P6SM SKC
     FM041800 03007KT P6SM SKC=



000
FTUS44 KEWX 032327
TAFSAT
TAF
KSAT 032327Z 0400/0506 01012KT P6SM FEW250
     FM040100 01006KT P6SM SKC
     FM041800 05007KT P6SM SKC=



000
FTUS44 KEWX 032327
TAFSAT
TAF
KSAT 032327Z 0400/0506 01012KT P6SM FEW250
     FM040100 01006KT P6SM SKC
     FM041800 05007KT P6SM SKC=



000
FTUS44 KEWX 032327
TAFDRT
TAF
KDRT 032327Z 0400/0424 32012KT P6SM SKC
     FM040500 02004KT P6SM SKC
     FM041600 14008KT P6SM SKC=



000
FTUS44 KEWX 032327
TAFAUS
TAF
KAUS 032327Z 0400/0506 35012KT P6SM FEW250
     FM040100 36007KT P6SM SKC
     FM041800 03007KT P6SM SKC=



000
FTUS44 KEWX 031732
TAFSAT
TAF
KSAT 031732Z 0318/0424 02010G20KT P6SM FEW200
     FM040100 01006KT P6SM SKC
     FM041800 05007KT P6SM SKC=



000
FTUS44 KEWX 031732
TAFDRT
TAF
KDRT 031732Z 0318/0418 34010G20KT P6SM SKC
     FM040100 02003KT P6SM SKC
     FM041500 13004KT P6SM SKC=



000
FTUS44 KEWX 031732
TAFAUS
TAF
KAUS 031732Z 0318/0424 36012G22KT P6SM FEW200
     FM040000 36007KT P6SM SKC
     FM041800 03005KT P6SM SKC=



000
FTUS44 KEWX 031732
TAFAUS
TAF
KAUS 031732Z 0318/0424 36012G22KT P6SM FEW200
     FM040000 36007KT P6SM SKC
     FM041800 03005KT P6SM SKC=



000
FTUS44 KEWX 031732
TAFSAT
TAF
KSAT 031732Z 0318/0424 02010G20KT P6SM FEW200
     FM040100 01006KT P6SM SKC
     FM041800 05007KT P6SM SKC=



000
FTUS44 KEWX 031732
TAFDRT
TAF
KDRT 031732Z 0318/0418 34010G20KT P6SM SKC
     FM040100 02003KT P6SM SKC
     FM041500 13004KT P6SM SKC=



000
FTUS44 KEWX 031120
TAFDRT
TAF
KDRT 031120Z 0312/0412 33011KT P6SM SKC
     FM040100 01004KT P6SM SKC=



000
FTUS44 KEWX 031120
TAFSAT
TAF
KSAT 031120Z 0312/0418 36013KT P6SM SKC
     FM040100 01006KT P6SM SKC=



000
FTUS44 KEWX 031120
TAFAUS
TAF
KAUS 031120Z 0312/0418 36014KT P6SM SKC
     FM040100 36005KT P6SM SKC=



    US Dept of Commerce
    National Oceanic and Atmospheric Administration
    National Weather Service
    1325 East West Highway
    Silver Spring, MD 20910
    Page Author: NWS Internet Services Team
Disclaimer
Information Quality
Credits
Glossary
Privacy Policy
Freedom of Information Act (FOIA)
About Us
Career Opportunities